WetterOnline ( https://www.wetteronline.de )

Wetter aktuell Birkenwerder

Aktuelles Wetter: Berlin-Dahlem (70m)

6-stündlich | Neueste Meldungen
Ortszeit Temperatur Wetter
Mi, 28.07. 2:00 19.9° C leicht bewölkt
Di, 27.07. 20:00 25.0° C leicht bewölkt
Di, 27.07. 14:00 26.7° C leicht bewölkt
Di, 27.07. 8:00 20.4° C leicht bewölkt
Di, 27.07. 2:00 18.4° C leicht bewölkt
Mo, 26.07. 20:00 26.3° C leicht bewölkt
Mo, 26.07. 14:00 28.0° C leichte Gewitter
Mo, 26.07. 8:00 19.3° C leichte Gewitter
Ortszeit Temperatur Wetter
Mi, 28.07. 7:00 18.1° C leichter Regen
Mi, 28.07. 6:00 17.7° C wolkig, nach Regen
Mi, 28.07. 5:00 17.3° C leicht bewölkt
Mi, 28.07. 4:00 17.7° C leicht bewölkt
Mi, 28.07. 3:00 19.0° C leicht bewölkt
Mi, 28.07. 2:00 19.9° C leicht bewölkt
Ortszeit Relative Feuchte Sichtweite
Mi, 28.07. 2:00 68% 50 km
Di, 27.07. 20:00 44% 50 km
Di, 27.07. 14:00 43% 50 km
Di, 27.07. 8:00 80% 45 km
Di, 27.07. 2:00 90% 50 km
Mo, 26.07. 20:00 43% 35 km
Mo, 26.07. 14:00 47% 25 km
Mo, 26.07. 8:00 96% 18 km
Ortszeit Relative Feuchte Sichtweite
Mi, 28.07. 7:00 82% 50 km
Mi, 28.07. 6:00 86% 50 km
Mi, 28.07. 5:00 86% 50 km
Mi, 28.07. 4:00 79% 50 km
Mi, 28.07. 3:00 72% 50 km
Mi, 28.07. 2:00 68% 50 km
Ortszeit Niederschlagsmenge Niederschlagsart
Mi, 28.07. 2:00 0.0 l/m2 in 6 Std. -
Di, 27.07. 20:00 0.0 l/m2 in 12 Std. -
Di, 27.07. 14:00 0.0 l/m2 in 6 Std. -
Di, 27.07. 8:00 0.0 l/m2 in 12 Std. -
Di, 27.07. 2:00 0.0 l/m2 in 6 Std. -
Mo, 26.07. 20:00 0.1 l/m2 in 12 Std. Gewitter
Mo, 26.07. 14:00 0.1 l/m2 in 6 Std. Gewitter, Schauer
Mo, 26.07. 8:00 0.5 l/m2 in 12 Std. Gewitter, Schauer
Ortszeit Niederschlagsmenge Niederschlagsart
Mi, 28.07. 7:00 keine Meldung -
Mi, 28.07. 6:00 keine Meldung -
Mi, 28.07. 5:00 keine Meldung -
Mi, 28.07. 4:00 keine Meldung -
Mi, 28.07. 3:00 keine Meldung -
Mi, 28.07. 2:00 keine Meldung -
Ortszeit Stärke Spitze Richtung
km/h Bft. km/h Grad Sektor
Mi, 28.07. 2:00 11 2 - 270° W
Di, 27.07. 20:00 11 2 - 210° SW
Di, 27.07. 14:00 22 4 - 230° SW
Di, 27.07. 8:00 11 2 - 230° SW
Di, 27.07. 2:00 7 2 - 160° S
Mo, 26.07. 20:00 18 3 - 220° SW
Mo, 26.07. 14:00 7 2 - 170° S
Mo, 26.07. 8:00 7 2 - 220° SW
Ortszeit Stärke Spitze Richtung
km/h Bft. km/h Grad Sektor
Mi, 28.07. 7:00 7 2 - 220° SW
Mi, 28.07. 6:00 11 2 - 210° SW
Mi, 28.07. 5:00 7 2 - 240° SW
Mi, 28.07. 4:00 11 2 - 270° W
Mi, 28.07. 3:00 11 2 - 270° W
Mi, 28.07. 2:00 11 2 - 270° W
Ortszeit Untergrenze Bedeckung Gattung
total tief tief mittel hoch
Mi, 28.07. 2:00 6900 m 7/8 7/8 - - Ci
Di, 27.07. 20:00 2100 m 5/8 1/8 Cu - Cs
Di, 27.07. 14:00 1500 m 6/8 2/8 Cu - Ci
Di, 27.07. 8:00 3900 m 2/8 1/8 - Ac Ci
Di, 27.07. 2:00 3600 m 7/8 1/8 - Ac Ci
Mo, 26.07. 20:00 1800 m 6/8 2/8 Cb As -
Mo, 26.07. 14:00 1290 m 7/8 5/8 Cb Ac Ci
Mo, 26.07. 8:00 2700 m 7/8 1/8 Cb Ac -
Ortszeit Bedeckungsgrad in Achtel und Wolkenuntergrenze
Mi, 28.07. 7:00 2(2400m) 7(3300m)
Mi, 28.07. 6:00 1(3000m) 7(3300m)
Mi, 28.07. 5:00 6(3600m)
Mi, 28.07. 4:00 5(3600m)
Mi, 28.07. 3:00 2(4200m)
Mi, 28.07. 2:00 7(6900m)
Ortszeit Luftdruck NN (hPa) Tendenz (hPa in 3 Std.)
Mi, 28.07. 2:00 1011 - 0,4
Di, 27.07. 20:00 1011 - 0,4
Di, 27.07. 14:00 1012 - 0,1
Di, 27.07. 8:00 1012 + 1,0
Di, 27.07. 2:00 1011 + 0,3
Mo, 26.07. 20:00 1009 - 0,1
Mo, 26.07. 14:00 1010 - 0,5
Mo, 26.07. 8:00 1010 + 0,5
Ortszeit Luftdruck NN (hPa) Tendenz (hPa in 3 Std.)
Mi, 28.07. 7:00 1011 + 0,1
Mi, 28.07. 6:00 1011 0,0
Mi, 28.07. 5:00 1011 - 0,4
Mi, 28.07. 4:00 1011 - 0,6
Mi, 28.07. 3:00 1011 - 0,9
Mi, 28.07. 2:00 1011 - 0,4
Ortszeit Schneehöhe (cm)
Mi, 28.07. 2:00 0
Di, 27.07. 20:00 0
Di, 27.07. 14:00 0
Di, 27.07. 8:00 0
Di, 27.07. 2:00 0
Mo, 26.07. 20:00 0
Mo, 26.07. 14:00 0
Mo, 26.07. 8:00 0
Ortszeit Schneehöhe (cm)
Mi, 28.07. 7:00 -
Mi, 28.07. 6:00 -
Mi, 28.07. 5:00 -
Mi, 28.07. 4:00 -
Mi, 28.07. 3:00 -
Mi, 28.07. 2:00 0
Link zu dieser Seite / Seite empfehlen

Das Wetter in ...